Time;durP1;ratioP1;P1;durP2;ratioP2;P2;SDS_P1;SDS_P2;PMS_P1;PMS_P2;Temp;Humidity;BMP_temperature;BMP_pressure;BME280_temperature;BME280_humidity;BME280_pressure;Samples;Min_cycle;Max_cycle;Signal;HPM_P1;HPM_P2
2021/10/18 00:02:14;;;;;;;14.18;8.45;;;6.70;99.90;;;;;;4993672;28;20030;-86
2021/10/18 00:04:39;;;;;;;16.63;8.73;;;9.00;99.90;;;;;;5002037;28;20041;-85
2021/10/18 00:07:07;;;;;;;16.02;8.85;;;6.70;99.90;;;;;;4992206;28;20109;-84
2021/10/18 00:09:34;;;;;;;13.45;7.97;;;8.40;99.90;;;;;;4994992;28;20038;-83
2021/10/18 00:11:59;;;;;;;14.07;8.40;;;7.30;99.90;;;;;;5001621;28;20030;-84
2021/10/18 00:14:25;;;;;;;15.18;8.88;;;6.80;99.90;;;;;;4995909;28;20053;-83
2021/10/18 00:16:51;;;;;;;13.73;9.00;;;6.70;99.90;;;;;;5008687;28;20027;-87
2021/10/18 00:19:19;;;;;;;16.25;8.95;;;8.80;99.90;;;;;;4996831;28;20037;-83
2021/10/18 00:21:45;;;;;;;13.95;8.23;;;8.20;99.90;;;;;;4994920;28;20080;-84
2021/10/18 00:24:11;;;;;;;14.77;8.70;;;8.30;99.90;;;;;;4996022;28;20038;-85
2021/10/18 00:26:36;;;;;;;18.48;9.52;;;6.70;99.90;;;;;;4998169;28;20121;-87
2021/10/18 00:29:02;;;;;;;18.08;9.25;;;8.70;99.90;;;;;;4995785;28;20026;-85
2021/10/18 00:31:28;;;;;;;17.30;10.18;;;8.00;99.90;;;;;;5010580;28;20045;-86
2021/10/18 00:33:54;;;;;;;17.67;9.20;;;7.80;99.90;;;;;;4996036;28;20481;-83
2021/10/18 00:36:19;;;;;;;18.02;9.70;;;7.20;99.90;;;;;;4991082;28;20512;-86
2021/10/18 00:38:45;;;;;;;15.38;9.63;;;9.00;99.90;;;;;;4992410;28;20038;-87
2021/10/18 00:41:12;;;;;;;18.80;10.30;;;6.70;99.90;;;;;;4991784;28;20526;-86
2021/10/18 00:43:43;;;;;;;16.70;9.27;;;6.70;99.90;;;;;;4992911;28;20527;-85
2021/10/18 00:46:08;;;;;;;16.95;9.43;;;6.70;99.90;;;;;;4994894;28;21298;-86
2021/10/18 00:48:34;;;;;;;16.13;9.07;;;6.70;99.90;;;;;;4997152;28;20042;-85
2021/10/18 00:51:00;;;;;;;17.20;9.38;;;6.70;99.90;;;;;;5009700;28;20038;-85
2021/10/18 00:53:29;;;;;;;14.60;9.30;;;7.60;99.90;;;;;;4993273;28;20792;-86
2021/10/18 00:55:56;;;;;;;15.32;9.15;;;6.60;99.90;;;;;;4986772;28;20081;-85
2021/10/18 00:58:26;;;;;;;16.23;9.57;;;8.20;99.90;;;;;;4991004;28;20368;-86
2021/10/18 01:00:52;;;;;;;18.65;10.48;;;6.80;99.90;;;;;;5007975;28;20084;-85
2021/10/18 01:03:19;;;;;;;15.35;9.40;;;8.70;99.90;;;;;;4992525;28;20038;-87
2021/10/18 01:05:45;;;;;;;16.55;9.65;;;6.50;99.90;;;;;;5012593;28;20034;-83
2021/10/18 01:08:11;;;;;;;15.05;8.65;;;7.80;99.90;;;;;;4991584;28;20043;-86
2021/10/18 01:10:37;;;;;;;17.83;8.95;;;8.40;99.90;;;;;;4996921;28;20404;-85
2021/10/18 01:13:04;;;;;;;13.52;8.05;;;8.70;99.90;;;;;;4989185;28;20026;-84
2021/10/18 01:15:30;;;;;;;14.73;8.82;;;6.50;99.90;;;;;;4991481;28;20054;-86
2021/10/18 01:17:55;;;;;;;14.80;8.27;;;7.90;99.90;;;;;;4997020;28;20061;-83
2021/10/18 01:20:35;;;;;;;16.25;8.82;;;6.40;99.90;;;;;;5010899;28;20114;-86
2021/10/18 01:23:02;;;;;;;14.63;8.45;;;6.30;99.90;;;;;;5010387;28;20045;-86
2021/10/18 01:25:28;;;;;;;15.60;9.50;;;6.30;99.90;;;;;;4991750;28;20030;-84
2021/10/18 01:27:55;;;;;;;14.35;8.40;;;6.20;99.90;;;;;;5004589;28;20034;-85
2021/10/18 01:30:21;;;;;;;14.30;8.38;;;6.20;99.90;;;;;;5002078;28;20093;-83
2021/10/18 01:32:47;;;;;;;13.70;7.93;;;8.50;99.90;;;;;;4994918;28;20030;-85
2021/10/18 01:35:13;;;;;;;16.98;8.43;;;6.20;99.90;;;;;;4992521;28;20274;-86
2021/10/18 01:37:39;;;;;;;15.68;8.50;;;6.30;99.90;;;;;;4993080;28;20026;-85
2021/10/18 01:40:10;;;;;;;13.02;8.43;;;8.50;99.90;;;;;;4993139;28;20035;-83
2021/10/18 01:42:36;;;;;;;;;;;6.20;99.90;;;;;;5010193;28;20026;-82
2021/10/18 01:45:07;;;;;;;14.57;7.97;;;6.70;99.90;;;;;;4994267;28;20012;-86
2021/10/18 01:47:33;;;;;;;16.45;8.43;;;6.20;99.90;;;;;;5007507;28;20120;-86
2021/10/18 01:49:58;;;;;;;14.23;8.32;;;7.20;99.90;;;;;;4988844;28;20212;-83
2021/10/18 01:52:24;;;;;;;20.35;9.38;;;7.90;99.90;;;;;;4987738;28;20042;-86
2021/10/18 01:54:50;;;;;;;17.08;9.10;;;7.10;99.90;;;;;;4997257;28;20106;-87
2021/10/18 01:57:16;;;;;;;12.55;7.63;;;6.20;99.90;;;;;;4996561;28;20128;-86
2021/10/18 01:59:42;;;;;;;13.63;7.93;;;7.20;99.90;;;;;;4992986;28;20034;-82
2021/10/18 02:02:08;;;;;;;15.95;8.80;;;6.20;99.90;;;;;;4993156;28;20376;-87
2021/10/18 02:04:34;;;;;;;13.32;8.43;;;6.10;99.90;;;;;;4995113;28;20033;-87
2021/10/18 02:06:59;;;;;;;16.00;8.98;;;7.40;99.90;;;;;;4992134;28;20027;-87
2021/10/18 02:09:25;;;;;;;13.45;8.40;;;7.90;99.90;;;;;;4991445;28;20027;-83
2021/10/18 02:11:51;;;;;;;17.17;8.40;;;7.50;99.90;;;;;;5008325;28;20038;-85
2021/10/18 02:14:17;;;;;;;13.68;7.93;;;5.90;99.90;;;;;;4994648;28;20026;-86
2021/10/18 02:16:43;;;;;;;14.20;8.07;;;6.90;99.90;;;;;;4998549;28;20810;-88
2021/10/18 02:19:09;;;;;;;16.52;8.90;;;5.90;99.90;;;;;;4993926;28;20160;-85
2021/10/18 02:21:35;;;;;;;14.10;8.90;;;6.80;99.90;;;;;;4989332;28;20034;-87
2021/10/18 02:24:01;;;;;;;17.42;8.57;;;6.00;99.90;;;;;;4994665;28;20045;-83
2021/10/18 02:26:26;;;;;;;15.65;8.55;;;8.20;99.90;;;;;;4997087;28;20604;-85
2021/10/18 02:28:52;;;;;;;15.48;9.32;;;5.90;99.90;;;;;;4995861;28;20034;-84
2021/10/18 02:31:18;;;;;;;13.32;8.30;;;7.10;99.90;;;;;;4994851;28;20034;-80
2021/10/18 02:33:43;;;;;;;18.67;9.52;;;7.80;99.90;;;;;;4994038;28;20666;-79
2021/10/18 02:36:09;;;;;;;17.13;9.20;;;6.50;99.90;;;;;;5010212;28;20112;-83
2021/10/18 02:38:35;;;;;;;15.20;9.32;;;6.70;99.90;;;;;;4993036;28;20043;-84
2021/10/18 02:41:01;;;;;;;14.23;8.73;;;;;;;;;;4993567;28;20357;-83
2021/10/18 02:43:26;;;;;;;16.35;9.20;;;5.80;99.90;;;;;;4995726;28;20030;-84
2021/10/18 02:45:52;;;;;;;16.83;9.30;;;7.30;99.90;;;;;;4998125;28;20034;-86
2021/10/18 02:48:18;;;;;;;16.27;8.32;;;5.80;99.90;;;;;;5015227;28;20791;-83
2021/10/18 02:50:44;;;;;;;16.42;8.32;;;5.80;99.90;;;;;;4996401;28;20037;-84
2021/10/18 02:53:10;;;;;;;18.00;8.93;;;;;;;;;;4997418;28;20077;-86
2021/10/18 02:55:36;;;;;;;16.27;9.32;;;;;;;;;;4999728;28;20444;-85
2021/10/18 02:58:02;;;;;;;16.13;9.77;;;;;;;;;;5000208;28;20034;-86
2021/10/18 03:00:27;;;;;;;17.60;9.55;;;5.80;99.90;;;;;;5015278;28;20026;-87
2021/10/18 03:02:53;;;;;;;18.15;9.65;;;5.80;99.90;;;;;;4999139;28;20036;-84
2021/10/18 03:05:19;;;;;;;15.93;9.40;;;8.00;99.90;;;;;;5005644;28;20029;-83
2021/10/18 03:07:50;;;;;;;16.98;9.02;;;5.70;99.90;;;;;;5003190;28;20030;-87
2021/10/18 03:10:16;;;;;;;16.23;9.10;;;;;;;;;;5017753;28;20030;-84
2021/10/18 03:12:42;;;;;;;16.30;9.75;;;5.80;99.90;;;;;;5001050;28;20564;-86
2021/10/18 03:15:08;;;;;;;17.65;8.73;;;5.70;99.90;;;;;;5001372;28;20078;-87
2021/10/18 03:17:34;;;;;;;16.65;9.30;;;5.70;99.90;;;;;;5004061;28;20030;-84
2021/10/18 03:20:00;;;;;;;15.05;8.32;;;;;;;;;;5001467;28;20026;-87
2021/10/18 03:22:29;;;;;;;18.35;9.68;;;;;;;;;;4994094;28;20060;-83
2021/10/18 03:24:55;;;;;;;17.08;9.25;;;;;;;;;;4998912;28;20537;-82
2021/10/18 03:27:24;;;;;;;16.80;9.70;;;;;;;;;;4995918;28;20220;-87
2021/10/18 03:29:51;;;;;;;16.27;9.77;;;;;;;;;;5019810;28;20198;-81
2021/10/18 03:32:17;;;;;;;18.95;10.70;;;;;;;;;;5009754;28;20584;-86
2021/10/18 03:34:42;;;;;;;16.73;10.85;;;5.50;99.90;;;;;;4998083;28;20040;-82
2021/10/18 03:37:08;;;;;;;20.27;11.63;;;7.10;99.90;;;;;;4996053;28;20054;-84
2021/10/18 03:39:34;;;;;;;20.00;10.15;;;5.60;99.90;;;;;;4992898;28;20026;-85
2021/10/18 03:42:00;;;;;;;13.95;8.35;;;;;;;;;;4995234;28;20479;-83
2021/10/18 03:44:26;;;;;;;15.95;8.52;;;;;;;;;;5000182;28;20041;-85
2021/10/18 03:46:51;;;;;;;16.48;9.43;;;5.60;99.90;;;;;;5008854;28;20022;-85
2021/10/18 03:49:17;;;;;;;16.15;8.60;;;5.50;99.90;;;;;;5000024;28;20037;-86
2021/10/18 03:51:43;;;;;;;15.75;9.98;;;7.40;99.90;;;;;;4998440;28;20034;-85
2021/10/18 03:54:09;;;;;;;16.08;9.25;;;;;;;;;;4994153;28;20038;-87
2021/10/18 03:56:35;;;;;;;14.90;8.73;;;;;;;;;;5010098;28;20472;-87
2021/10/18 03:59:00;;;;;;;18.40;9.90;;;5.50;99.90;;;;;;5014797;28;20034;-86
2021/10/18 04:01:26;;;;;;;20.00;10.95;;;7.70;99.90;;;;;;4997472;28;20089;-89
2021/10/18 04:03:52;;;;;;;15.43;9.88;;;;;;;;;;4996702;28;20038;-86
2021/10/18 04:06:18;;;;;;;15.30;8.60;;;5.30;99.90;;;;;;4998735;28;20125;-85
2021/10/18 04:08:45;;;;;;;17.45;9.15;;;6.70;99.90;;;;;;4993276;28;20373;-84
2021/10/18 04:11:11;;;;;;;15.70;8.75;;;;;;;;;;4998752;28;20038;-87
2021/10/18 04:13:37;;;;;;;15.70;9.20;;;;;;;;;;4996397;28;20042;-89
2021/10/18 04:16:03;;;;;;;16.33;9.18;;;5.40;99.90;;;;;;4994410;28;20049;-87
2021/10/18 04:18:28;;;;;;;16.55;9.80;;;5.40;99.90;;;;;;4994415;28;20042;-87
2021/10/18 04:20:55;;;;;;;18.33;8.93;;;;;;;;;;4995903;28;20050;-84
2021/10/18 04:23:23;;;;;;;17.27;9.88;;;;;;;;;;5008295;28;20117;-85
2021/10/18 04:25:49;;;;;;;16.20;9.43;;;5.40;99.90;;;;;;5011087;28;20030;-81
2021/10/18 04:28:14;;;;;;;14.75;8.85;;;7.50;99.90;;;;;;5010384;28;20052;-84
2021/10/18 04:30:40;;;;;;;16.75;9.30;;;8.30;99.90;;;;;;4992267;28;20507;-82
2021/10/18 04:33:06;;;;;;;16.05;9.10;;;7.30;99.90;;;;;;4997974;28;20023;-83
2021/10/18 04:35:31;;;;;;;16.42;9.38;;;5.30;99.90;;;;;;5003465;28;20026;-86
2021/10/18 04:37:57;;;;;;;15.93;9.52;;;6.40;99.90;;;;;;5000381;28;20045;-84
2021/10/18 04:40:23;;;;;;;19.48;9.85;;;5.40;99.90;;;;;;4996657;28;20053;-81
2021/10/18 04:42:49;;;;;;;18.58;10.20;;;5.30;99.90;;;;;;4997370;28;20088;-82
2021/10/18 04:45:15;;;;;;;16.27;9.93;;;;;;;;;;4996698;28;20050;-83
2021/10/18 04:47:46;;;;;;;16.63;9.70;;;5.40;99.90;;;;;;4997701;28;20026;-85
2021/10/18 04:50:12;;;;;;;15.52;9.35;;;7.30;99.90;;;;;;5013115;28;20084;-83
2021/10/18 04:52:37;;;;;;;16.45;9.27;;;5.40;99.90;;;;;;4998283;28;20069;-85
2021/10/18 04:55:04;;;;;;;15.20;8.40;;;5.40;99.90;;;;;;4993528;28;20117;-85
2021/10/18 04:57:29;;;;;;;13.90;8.55;;;5.50;99.90;;;;;;4993734;28;20470;-85
2021/10/18 04:59:58;;;;;;;17.60;9.50;;;6.70;99.90;;;;;;4999653;28;20022;-83
2021/10/18 05:02:27;;;;;;;16.20;9.40;;;6.60;99.90;;;;;;4996275;28;20026;-83
2021/10/18 05:04:53;;;;;;;15.65;9.13;;;;;;;;;;4995005;28;20026;-82
2021/10/18 05:07:19;;;;;;;15.93;9.13;;;;;;;;;;5000770;28;20030;-86
2021/10/18 05:09:47;;;;;;;15.75;9.25;;;5.30;99.90;;;;;;4999870;28;20026;-83
2021/10/18 05:12:20;;;;;;;16.85;9.73;;;5.30;99.90;;;;;;4999251;28;20054;-81
2021/10/18 05:14:46;;;;;;;17.92;9.98;;;6.60;99.90;;;;;;4997056;28;20064;-83
2021/10/18 05:17:11;;;;;;;16.83;9.52;;;5.30;99.90;;;;;;4994967;28;20033;-86
2021/10/18 05:19:37;;;;;;;19.48;9.85;;;5.30;99.90;;;;;;4997255;28;20027;-83
2021/10/18 05:22:03;;;;;;;16.85;10.20;;;;;;;;;;5000124;28;20041;-82
2021/10/18 05:24:29;;;;;;;19.40;10.98;;;5.30;99.90;;;;;;5007432;28;20685;-83
2021/10/18 05:26:55;;;;;;;19.65;10.68;;;;;;;;;;4997579;28;20114;-78
2021/10/18 05:29:23;;;;;;;18.55;10.90;;;5.20;99.90;;;;;;4998013;28;20054;-86
2021/10/18 05:31:49;;;;;;;19.60;10.57;;;;;;;;;;4995608;28;20034;-85
2021/10/18 05:34:15;;;;;;;16.35;9.63;;;5.20;99.90;;;;;;4994491;28;20027;-86
2021/10/18 05:36:41;;;;;;;16.55;9.05;;;;;;;;;;4995534;28;20030;-83
2021/10/18 05:39:07;;;;;;;16.85;9.05;;;;;;;;;;4996557;28;20130;-84
2021/10/18 05:41:33;;;;;;;14.98;9.05;;;;;;;;;;4992446;28;20030;-85
2021/10/18 05:43:59;;;;;;;13.75;8.52;;;;;;;;;;4996966;28;20026;-86
2021/10/18 05:46:25;;;;;;;15.85;8.98;;;5.10;99.90;;;;;;4992848;28;20038;-86
2021/10/18 05:48:51;;;;;;;15.55;9.38;;;;;;;;;;5012233;28;20081;-86
2021/10/18 05:51:18;;;;;;;14.13;8.77;;;;;;;;;;4994149;28;20038;-85
2021/10/18 05:53:44;;;;;;;15.48;8.95;;;;;;;;;;4991121;28;20129;-83
2021/10/18 05:56:10;;;;;;;14.00;8.45;;;5.00;99.90;;;;;;4991141;28;20065;-86
2021/10/18 05:58:36;;;;;;;15.48;9.18;;;6.70;99.90;;;;;;4992364;28;20038;-86
2021/10/18 06:01:02;;;;;;;14.95;8.32;;;7.60;99.90;;;;;;5011542;28;20127;-83
2021/10/18 06:03:29;;;;;;;16.30;9.52;;;;;;;;;;4991562;28;20022;-86
2021/10/18 06:05:55;;;;;;;17.35;9.25;;;;;;;;;;5000003;28;20026;-86
2021/10/18 06:08:23;;;;;;;15.77;9.57;;;5.10;99.90;;;;;;5028391;28;20018;-87
2021/10/18 06:10:50;;;;;;;16.98;9.90;;;;;;;;;;5002730;28;20038;-86
2021/10/18 06:13:15;;;;;;;15.43;9.20;;;5.10;99.90;;;;;;5016196;28;21040;-86
2021/10/18 06:15:44;;;;;;;15.88;9.10;;;7.00;99.90;;;;;;4994294;28;20066;-85
2021/10/18 06:18:19;;;;;;;14.88;7.97;;;5.10;99.90;;;;;;5003147;28;20042;-85
2021/10/18 06:20:50;;;;;;;12.65;8.02;;;5.10;99.90;;;;;;4999777;28;20473;-80
2021/10/18 06:23:16;;;;;;;;;;;7.00;99.90;;;;;;5003945;28;20039;-86
2021/10/18 06:25:42;;;;;;;43.67;11.20;;;7.80;99.90;;;;;;5009951;28;19933;-86
2021/10/18 06:28:09;;;;;;;16.50;7.75;;;5.10;99.90;;;;;;5009773;28;20030;-81
2021/10/18 06:30:38;;;;;;;16.20;8.93;;;5.20;99.90;;;;;;4998185;28;20051;-83
2021/10/18 06:33:07;;;;;;;13.98;7.40;;;;;;;;;;4998572;28;20030;-83
2021/10/18 06:35:34;;;;;;;12.63;7.53;;;5.30;99.90;;;;;;5001818;28;20018;-83
2021/10/18 06:38:00;;;;;;;12.98;7.35;;;;;;;;;;4998370;28;20492;-81
2021/10/18 06:40:26;;;;;;;12.88;7.30;;;;;;;;;;4999641;28;20071;-81
2021/10/18 06:42:55;;;;;;;13.30;7.85;;;6.80;99.90;;;;;;5010752;28;20037;-82
2021/10/18 06:45:20;;;;;;;13.20;8.05;;;8.00;99.90;;;;;;5012618;28;20027;-81
2021/10/18 06:47:46;;;;;;;15.82;8.85;;;7.50;99.90;;;;;;5002711;28;20049;-81
2021/10/18 06:50:12;;;;;;;17.73;8.25;;;5.30;99.90;;;;;;5016064;28;20088;-81
2021/10/18 06:52:41;;;;;;;14.85;7.97;;;6.90;99.90;;;;;;4999625;28;20030;-78
2021/10/18 06:55:10;;;;;;;16.38;9.13;;;6.40;99.90;;;;;;5003403;28;20022;-85
2021/10/18 06:57:36;;;;;;;13.70;8.35;;;;;;;;;;4994354;28;20169;-84
2021/10/18 07:00:04;;;;;;;13.55;8.73;;;5.40;99.90;;;;;;5005358;28;20026;-83
2021/10/18 07:02:30;;;;;;;16.80;9.38;;;;;;;;;;5007680;28;20476;-81
2021/10/18 07:05:01;;;;;;;15.32;8.15;;;5.30;99.90;;;;;;5002667;28;20026;-82
2021/10/18 07:07:30;;;;;;;;;;;3.50;99.90;;;;;;4992099;28;20120;-80
2021/10/18 07:10:00;;;;;;;15.43;9.05;;;5.40;99.90;;;;;;4997739;28;20449;-83
2021/10/18 07:12:39;;;;;;;14.00;7.95;;;5.50;99.90;;;;;;5000610;28;20517;-85
2021/10/18 07:15:05;;;;;;;13.57;8.43;;;5.30;99.90;;;;;;5009476;28;20026;-80
2021/10/18 07:17:31;;;;;;;16.10;9.23;;;5.60;99.90;;;;;;4995173;28;20030;-82
2021/10/18 07:19:58;;;;;;;13.57;8.30;;;5.40;99.90;;;;;;4992191;28;20023;-84
2021/10/18 07:22:26;;;;;;;16.00;9.32;;;5.60;99.90;;;;;;4996020;28;20041;-82
2021/10/18 07:24:58;;;;;;;14.23;8.32;;;5.40;99.90;;;;;;5010938;28;20030;-81
2021/10/18 07:27:29;;;;;;;14.15;8.60;;;7.50;99.90;;;;;;5000021;28;20094;-83
2021/10/18 07:29:56;;;;;;;;;;;7.40;99.90;;;;;;4996579;28;20451;-86
2021/10/18 07:32:28;;;;;;;15.40;8.10;;;5.80;99.90;;;;;;4989382;28;20021;-84
2021/10/18 07:34:56;;;;;;;16.67;8.68;;;7.90;99.90;;;;;;4989160;28;20069;-83
2021/10/18 07:37:26;;;;;;;16.48;8.63;;;6.20;99.90;;;;;;4989482;28;20030;-81
2021/10/18 07:39:52;;;;;;;14.38;8.35;;;6.20;99.90;;;;;;4993828;28;20042;-84
2021/10/18 07:42:20;;;;;;;14.02;8.57;;;7.50;99.90;;;;;;4994536;28;20161;-85
2021/10/18 07:44:46;;;;;;;17.85;9.00;;;6.20;99.90;;;;;;4995738;28;20030;-83
2021/10/18 07:47:12;;;;;;;13.45;7.78;;;6.40;99.90;;;;;;4997031;28;20030;-78
2021/10/18 07:49:40;;;;;;;17.75;8.68;;;8.50;99.90;;;;;;4996533;28;20030;-83
2021/10/18 07:52:11;;;;;;;19.00;8.85;;;6.40;99.90;;;;;;4995460;28;20037;-84
2021/10/18 07:54:38;;;;;;;16.13;8.73;;;7.90;99.90;;;;;;5000985;28;20042;-80
2021/10/18 07:57:07;;;;;;;12.82;7.50;;;7.40;99.90;;;;;;5002638;28;20026;-81
2021/10/18 07:59:33;;;;;;;12.10;7.38;;;6.40;99.90;;;;;;5004540;28;20045;-82
2021/10/18 08:01:59;;;;;;;11.63;7.35;;;8.70;99.90;;;;;;4994492;28;20491;-82
2021/10/18 08:04:25;;;;;;;11.95;7.80;;;7.20;99.90;;;;;;5000309;28;20026;-82
2021/10/18 08:06:54;;;;;;;11.15;7.05;;;9.00;99.90;;;;;;4993108;28;20121;-85
2021/10/18 08:09:20;;;;;;;12.07;7.55;;;8.10;99.90;;;;;;4995309;28;20029;-84
2021/10/18 08:11:46;;;;;;;11.95;7.10;;;6.70;99.90;;;;;;4996221;28;20042;-84
2021/10/18 08:14:12;;;;;;;14.40;7.97;;;;;;;;;;4997158;28;20033;-82
2021/10/18 08:16:41;;;;;;;13.10;7.28;;;7.20;99.90;;;;;;5010913;28;20110;-84
2021/10/18 08:19:06;;;;;;;13.23;7.30;;;7.20;99.90;;;;;;4996866;28;20030;-80
2021/10/18 08:21:32;;;;;;;10.85;6.93;;;7.30;99.90;;;;;;4997191;28;20042;-87
2021/10/18 08:23:57;;;;;;;17.85;8.07;;;9.70;99.90;;;;;;4998081;28;20451;-82
2021/10/18 08:26:23;;;;;;;11.50;6.95;;;;;;;;;;5000866;28;20046;-83
2021/10/18 08:28:49;;;;;;;10.80;7.25;;;7.50;99.90;;;;;;5013210;28;20033;-82
2021/10/18 08:31:15;;;;;;;14.13;7.72;;;10.10;99.90;;;;;;4999285;28;20018;-83
2021/10/18 08:33:44;;;;;;;11.98;7.38;;;7.90;99.90;;;;;;5000324;28;20468;-84
2021/10/18 08:36:11;;;;;;;14.55;8.32;;;7.80;99.90;;;;;;5001802;28;20022;-85
2021/10/18 08:38:53;;;;;;;12.80;7.80;;;7.80;99.90;;;;;;5000726;28;20472;-81
2021/10/18 08:41:38;;;;;;;12.57;7.60;;;7.70;99.90;;;;;;5003064;28;20508;-89
2021/10/18 08:44:16;;;;;;;18.85;7.43;;;8.00;99.90;;;;;;4994635;28;20014;-85
2021/10/18 08:46:59;;;;;;;12.38;6.57;;;10.10;99.90;;;;;;4996973;28;20121;-83
2021/10/18 08:49:30;;;;;;;14.65;7.75;;;8.00;99.90;;;;;;4986893;28;20027;-80
2021/10/18 08:51:56;;;;;;;12.05;7.00;;;9.50;99.90;;;;;;4994641;28;20026;-83
2021/10/18 08:54:22;;;;;;;12.20;7.40;;;8.20;99.90;;;;;;4995498;28;20038;-82
2021/10/18 08:56:48;;;;;;;11.07;7.40;;;8.40;99.90;;;;;;5000970;28;20030;-83
2021/10/18 08:59:16;;;;;;;10.75;7.60;;;10.70;99.90;;;;;;4997885;28;20033;-86
2021/10/18 09:01:45;;;;;;;12.35;7.20;;;10.10;99.90;;;;;;4988941;28;20049;-85
2021/10/18 09:04:26;;;;;;;10.37;6.50;;;9.80;99.90;;;;;;4990931;28;20046;-85
2021/10/18 09:06:57;;;;;;;11.85;6.65;;;8.90;99.90;;;;;;4993469;28;20034;-79
2021/10/18 09:09:25;;;;;;;10.98;6.13;;;9.70;99.90;;;;;;5012376;28;20114;-85
2021/10/18 09:11:53;;;;;;;12.15;6.70;;;9.50;99.90;;;;;;4994816;28;20040;-87
2021/10/18 09:14:18;;;;;;;15.75;6.65;;;10.00;99.90;;;;;;4996863;28;20101;-86
2021/10/18 09:16:45;;;;;;;9.02;6.00;;;7.50;99.90;;;;;;4997155;28;20038;-88
2021/10/18 09:19:18;;;;;;;9.45;5.63;;;9.90;99.90;;;;;;4999081;28;20021;-82
2021/10/18 09:21:59;;;;;;;9.13;5.95;;;9.70;99.90;;;;;;4994684;28;20029;-85
2021/10/18 09:24:31;;;;;;;7.57;5.32;;;12.20;99.90;;;;;;4997168;28;20074;-83
2021/10/18 09:26:59;;;;;;;7.63;5.55;;;12.50;99.90;;;;;;5025173;28;20042;-86
2021/10/18 09:29:45;;;;;;;8.88;5.30;;;10.20;99.90;;;;;;5000384;28;20046;-84
2021/10/18 09:32:27;;;;;;;8.48;5.45;;;10.20;99.90;;;;;;5012403;28;20034;-82
2021/10/18 09:35:05;;;;;;;7.85;5.18;;;9.90;99.90;;;;;;4996241;28;20073;-84
2021/10/18 09:37:41;;;;;;;8.75;4.90;;;9.80;99.90;;;;;;4991642;28;20381;-84
2021/10/18 09:40:07;;;;;;;7.93;4.70;;;9.90;99.90;;;;;;4995505;28;20035;-84
2021/10/18 09:42:33;;;;;;;9.55;6.50;;;9.90;99.90;;;;;;4997275;28;20058;-84
2021/10/18 10:52:42;;;;;;;8.95;5.82;;;10.40;99.90;;;;;;5009153;28;20498;-85
2021/10/18 10:55:32;;;;;;;11.65;6.47;;;10.70;99.90;;;;;;5016998;28;20036;-87
2021/10/18 10:58:01;;;;;;;11.65;6.95;;;10.80;99.90;;;;;;5021183;28;20125;-82
2021/10/18 11:00:41;;;;;;;10.02;6.50;;;10.70;99.90;;;;;;5005110;28;20025;-87
2021/10/18 11:03:23;;;;;;;11.05;5.70;;;11.00;99.90;;;;;;5002789;28;20030;-86
2021/10/18 11:06:02;;;;;;;9.43;5.68;;;11.00;99.90;;;;;;4997359;28;20034;-85
2021/10/18 11:08:30;;;;;;;10.80;6.63;;;11.20;99.90;;;;;;5007641;28;20044;-84
2021/10/18 11:10:56;;;;;;;9.15;5.78;;;11.10;99.90;;;;;;5002051;28;20120;-85
2021/10/18 11:13:22;;;;;;;11.57;6.60;;;11.40;99.90;;;;;;5004460;28;20476;-86
2021/10/18 11:15:47;;;;;;;9.88;6.15;;;11.40;99.90;;;;;;5017551;28;20122;-88
2021/10/18 11:18:23;;;;;;;10.05;6.25;;;14.00;99.90;;;;;;5000725;28;20053;-87
2021/10/18 11:20:49;;;;;;;8.48;5.47;;;13.30;99.90;;;;;;4994885;28;20030;-84
2021/10/18 11:23:16;;;;;;;11.02;5.97;;;11.50;99.90;;;;;;5003989;28;20025;-85
2021/10/18 11:25:44;;;;;;;9.52;6.00;;;11.60;99.90;;;;;;5001178;28;20034;-85
2021/10/18 11:28:10;;;;;;;8.80;5.38;;;12.00;99.90;;;;;;5023028;28;20041;-86
2021/10/18 11:30:38;;;;;;;9.93;6.25;;;11.40;99.90;;;;;;5005230;28;20456;-85
2021/10/18 11:33:08;;;;;;;9.07;5.70;;;11.60;99.90;;;;;;4999642;28;20269;-84
2021/10/18 11:35:34;;;;;;;12.63;5.95;;;11.80;99.90;;;;;;5003433;28;20029;-82
2021/10/18 11:38:10;;;;;;;7.90;5.55;;;11.70;99.90;;;;;;5019959;28;20038;-86
2021/10/18 11:40:39;;;;;;;10.88;5.93;;;11.80;99.90;;;;;;5001782;28;20050;-83
2021/10/18 11:43:34;;;;;;;8.82;5.63;;;12.40;99.90;;;;;;5002229;28;20464;-84
2021/10/18 11:46:00;;;;;;;11.85;6.80;;;12.00;99.90;;;;;;4998013;28;20058;-85
2021/10/18 11:48:30;;;;;;;9.45;6.18;;;12.10;99.90;;;;;;5004451;28;20065;-85
2021/10/18 11:50:59;;;;;;;8.93;5.43;;;13.10;99.90;;;;;;5021265;28;20022;-84
2021/10/18 11:53:26;;;;;;;10.75;6.47;;;12.20;99.90;;;;;;4999700;28;20018;-84
2021/10/18 11:55:59;;;;;;;8.68;5.70;;;13.30;99.90;;;;;;5003101;28;20018;-84
2021/10/18 11:58:27;;;;;;;10.88;5.55;;;12.00;99.90;;;;;;5000232;28;20034;-84
2021/10/18 12:01:00;;;;;;;11.80;6.18;;;13.50;99.90;;;;;;5011473;28;20031;-83
2021/10/18 12:03:26;;;;;;;9.77;5.75;;;12.10;99.90;;;;;;5005195;28;20122;-83
2021/10/18 12:05:54;;;;;;;8.55;5.72;;;12.20;99.90;;;;;;5001106;28;20022;-86
2021/10/18 12:08:25;;;;;;;7.85;5.70;;;12.70;99.90;;;;;;5000476;28;20033;-85
2021/10/18 12:10:52;;;;;;;8.75;5.40;;;12.50;99.90;;;;;;4995497;28;20057;-85
2021/10/18 12:13:24;;;;;;;7.15;5.13;;;12.50;99.90;;;;;;4999383;28;20030;-85
2021/10/18 12:16:03;;;;;;;9.20;5.60;;;12.50;99.90;;;;;;5013005;28;20026;-86
2021/10/18 12:18:36;;;;;;;9.13;5.68;;;12.70;99.90;;;;;;5013331;28;20523;-83
2021/10/18 12:21:10;;;;;;;9.73;5.57;;;12.70;99.90;;;;;;5016045;28;20388;-82
2021/10/18 12:23:45;;;;;;;8.15;5.82;;;13.00;99.90;;;;;;5000991;28;20501;-84
2021/10/18 12:26:15;;;;;;;9.00;5.88;;;13.00;99.90;;;;;;5002409;28;20022;-85
2021/10/18 12:28:55;;;;;;;9.85;6.57;;;13.00;99.90;;;;;;5002658;28;20049;-82
2021/10/18 12:31:29;;;;;;;;;;;12.90;99.90;;;;;;5016306;28;20397;-85
2021/10/18 12:34:03;;;;;;;22.33;11.27;;;13.00;99.90;;;;;;4998550;28;19909;-87
2021/10/18 12:36:32;;;;;;;19.63;8.20;;;12.80;99.90;;;;;;5002355;28;20025;-82
2021/10/18 12:39:00;;;;;;;26.55;15.55;;;13.00;99.90;;;;;;5004646;28;20054;-83
2021/10/18 12:41:26;;;;;;;15.68;8.82;;;13.00;99.90;;;;;;5003801;28;20042;-81
2021/10/18 12:43:52;;;;;;;15.88;9.50;;;;;;;;;;5024983;28;20030;-82
2021/10/18 12:46:28;;;;;;;14.75;7.72;;;12.90;99.90;;;;;;4999674;28;20030;-82
2021/10/18 12:48:59;;;;;;;11.75;7.13;;;12.90;99.90;;;;;;5019777;28;20065;-85
2021/10/18 12:51:46;;;;;;;10.27;7.20;;;12.80;99.90;;;;;;4999696;28;20038;-84
2021/10/18 12:54:25;;;;;;;12.27;6.93;;;12.90;99.90;;;;;;5011665;28;20042;-84
2021/10/18 12:57:02;;;;;;;10.48;7.00;;;12.90;99.90;;;;;;5002762;28;20037;-84
2021/10/18 12:59:31;;;;;;;9.65;6.28;;;13.20;99.90;;;;;;5000120;28;20022;-81
2021/10/18 13:02:17;;;;;;;11.70;6.85;;;13.10;99.90;;;;;;5000424;28;20022;-81
2021/10/18 13:05:06;;;;;;;8.35;5.32;;;13.10;99.90;;;;;;4993704;28;20135;-82
2021/10/18 13:07:33;;;;;;;8.88;5.22;;;13.20;99.90;;;;;;4998940;28;20038;-86
2021/10/18 13:09:59;;;;;;;7.75;5.47;;;;;;;;;;5019467;28;20066;-82
2021/10/18 13:12:26;;;;;;;9.93;5.60;;;;;;;;;;5001294;28;20037;-84
2021/10/18 13:14:55;;;;;;;8.98;5.68;;;14.10;99.90;;;;;;5018632;28;20045;-84
2021/10/18 13:17:28;;;;;;;9.13;6.05;;;14.20;99.90;;;;;;5000095;28;20058;-85
2021/10/18 13:19:56;;;;;;;8.13;5.70;;;14.00;99.90;;;;;;4996657;28;20034;-83
2021/10/18 13:22:28;;;;;;;7.93;5.30;;;14.20;99.90;;;;;;5001211;28;20030;-84
2021/10/18 13:24:56;;;;;;;7.97;5.40;;;14.00;99.90;;;;;;5016246;28;20030;-83
2021/10/18 13:27:25;;;;;;;10.90;5.50;;;13.80;99.90;;;;;;5002392;28;20038;-81
2021/10/18 13:29:51;;;;;;;10.77;6.03;;;13.90;99.90;;;;;;4992820;28;20026;-83
2021/10/18 13:32:34;;;;;;;9.48;5.47;;;14.00;99.90;;;;;;5012530;28;20034;-84
2021/10/18 13:35:06;;;;;;;9.88;5.78;;;14.10;99.90;;;;;;5018351;28;20086;-81
2021/10/18 13:37:34;;;;;;;7.60;5.63;;;14.00;99.90;;;;;;4999999;28;20034;-86
2021/10/18 13:40:00;;;;;;;10.25;5.82;;;14.10;99.90;;;;;;5011189;28;20026;-83
2021/10/18 13:42:51;;;;;;;9.93;5.53;;;14.40;99.90;;;;;;4999660;28;20123;-86
2021/10/18 13:45:23;;;;;;;8.90;5.72;;;14.10;99.90;;;;;;4998965;28;20140;-83
2021/10/18 13:47:51;;;;;;;7.65;5.63;;;14.70;99.90;;;;;;4992423;28;20069;-82
2021/10/18 13:50:17;;;;;;;8.27;5.65;;;14.20;99.90;;;;;;4991882;28;20038;-82
2021/10/18 13:52:45;;;;;;;7.93;5.20;;;14.20;99.90;;;;;;4996761;28;20029;-82
2021/10/18 13:55:11;;;;;;;9.88;6.20;;;15.60;99.90;;;;;;5000555;28;20018;-88
2021/10/18 13:57:45;;;;;;;8.40;5.60;;;14.40;99.90;;;;;;4994709;28;20045;-84
2021/10/18 14:00:11;;;;;;;8.32;5.60;;;14.30;99.90;;;;;;4996786;28;20038;-85
2021/10/18 14:02:39;;;;;;;7.53;5.47;;;14.20;99.90;;;;;;4992354;28;20027;-83
2021/10/18 14:05:06;;;;;;;8.98;5.55;;;14.30;99.90;;;;;;4999598;28;20030;-80
2021/10/18 14:07:34;;;;;;;8.68;5.82;;;14.30;99.90;;;;;;4995197;28;20042;-85
2021/10/18 14:10:03;;;;;;;8.25;5.70;;;14.60;99.90;;;;;;4998932;28;20018;-81
2021/10/18 14:12:28;;;;;;;6.75;4.97;;;14.30;99.90;;;;;;4990061;28;20038;-83
2021/10/18 14:14:54;;;;;;;7.70;5.30;;;14.20;99.90;;;;;;4997775;28;20029;-80